createdAt,value
2018-06-28T00:02:17.157Z,58.00
2018-06-28T00:04:47.737Z,58.00
2018-06-28T00:07:18.226Z,57.90
2018-06-28T00:09:48.612Z,58.40
2018-06-28T00:12:19.569Z,58.60
2018-06-28T00:14:50.025Z,58.70
2018-06-28T00:17:20.287Z,58.80
2018-06-28T00:19:52.371Z,59.30
2018-06-28T00:22:22.766Z,59.30
2018-06-28T00:24:53.041Z,59.40
2018-06-28T00:29:55.084Z,59.60
2018-06-28T00:32:25.557Z,59.80
2018-06-28T00:34:55.892Z,59.90
2018-06-28T00:37:27.343Z,60.00
2018-06-28T00:39:57.768Z,60.40
2018-06-28T00:42:28.223Z,60.40
2018-06-28T00:44:58.724Z,60.40
2018-06-28T00:49:58.924Z,60.90
2018-06-28T00:54:59.199Z,61.20
2018-06-28T00:57:29.495Z,61.40
2018-06-28T00:59:59.812Z,61.90
2018-06-28T01:05:00.167Z,62.50
2018-06-28T01:07:30.481Z,61.90
2018-06-28T01:10:01.682Z,61.90
2018-06-28T01:12:32.134Z,61.90
2018-06-28T01:15:02.575Z,61.80
2018-06-28T01:17:33.060Z,61.80
2018-06-28T01:22:33.392Z,62.20
2018-06-28T01:25:03.795Z,62.60
2018-06-28T01:27:34.164Z,62.80
2018-06-28T01:30:05.322Z,63.00
2018-06-28T01:32:35.710Z,62.80
2018-06-28T01:35:07.684Z,63.00
2018-06-28T01:37:37.982Z,63.90
2018-06-28T01:40:08.324Z,63.70
2018-06-28T01:42:56.812Z,63.50
2018-06-28T01:45:27.584Z,63.60
2018-06-28T01:47:58.023Z,63.70
2018-06-28T01:50:30.268Z,63.50
2018-06-28T01:53:00.587Z,63.90
2018-06-28T01:55:31.695Z,64.10
2018-06-28T01:58:01.971Z,64.40
2018-06-28T02:00:33.175Z,64.50
2018-06-28T02:03:03.563Z,64.50
2018-06-28T02:05:33.840Z,64.80
2018-06-28T02:08:04.558Z,64.80
2018-06-28T02:10:34.972Z,65.40
2018-06-28T02:13:05.567Z,65.40
2018-06-28T02:15:36.918Z,65.20
2018-06-28T02:18:08.793Z,65.40
2018-06-28T02:20:40.331Z,65.40
2018-06-28T02:23:10.763Z,65.40
2018-06-28T02:25:41.084Z,65.70
2018-06-28T02:30:42.925Z,65.90
2018-06-28T02:33:13.201Z,66.10
2018-06-28T02:35:44.490Z,66.10
2018-06-28T02:38:14.916Z,66.10
2018-06-28T02:40:46.159Z,66.10
2018-06-28T02:43:18.400Z,66.80
2018-06-28T02:45:48.812Z,66.00
2018-06-28T02:48:19.260Z,66.10
2018-06-28T02:50:49.607Z,66.00
2018-06-28T02:53:20.068Z,66.80
2018-06-28T02:55:50.326Z,66.80
2018-06-28T02:58:20.661Z,66.90
2018-06-28T03:00:50.983Z,66.90
2018-06-28T03:03:21.914Z,67.30
2018-06-28T03:08:22.210Z,67.50
2018-06-28T03:10:52.513Z,66.90
2018-06-28T03:13:24.249Z,67.10
2018-06-28T03:15:54.765Z,67.30
2018-06-28T03:18:25.109Z,67.30
2018-06-28T03:20:56.133Z,67.40
2018-06-28T03:23:26.777Z,67.40
2018-06-28T03:25:57.177Z,67.80
2018-06-28T03:28:27.504Z,67.80
2018-06-28T03:31:00.032Z,67.80
2018-06-28T03:33:30.413Z,67.70
2018-06-28T03:36:01.389Z,67.90
2018-06-28T03:38:31.832Z,67.80
2018-06-28T03:41:02.315Z,67.80
2018-06-28T03:46:04.938Z,67.90
2018-06-28T03:48:35.329Z,68.00
2018-06-28T03:51:06.072Z,67.90
2018-06-28T03:56:06.995Z,68.10
2018-06-28T04:03:37.540Z,68.30
2018-06-28T04:06:09.055Z,68.20
2018-06-28T04:08:39.641Z,68.10
2018-06-28T04:11:09.987Z,68.10
2018-06-28T04:13:40.312Z,68.00
2018-06-28T04:16:10.841Z,68.10
2018-06-28T04:18:42.017Z,67.90
2018-06-28T04:21:12.388Z,68.40
2018-06-28T04:23:42.777Z,67.80
2018-06-28T04:26:17.162Z,67.80
2018-06-28T04:31:17.428Z,67.60
2018-06-28T04:33:47.717Z,67.30
2018-06-28T04:36:18.077Z,66.90
2018-06-28T04:38:48.625Z,66.50
2018-06-28T04:41:19.012Z,66.50
2018-06-28T04:43:49.321Z,65.80
2018-06-28T04:46:19.724Z,65.90
2018-06-28T04:48:50.082Z,65.50
2018-06-28T04:51:20.554Z,65.10
2018-06-28T04:53:50.951Z,65.10
2018-06-28T04:56:21.685Z,64.60
2018-06-28T04:58:52.134Z,64.50
2018-06-28T05:01:22.538Z,64.30
2018-06-28T05:03:52.852Z,64.00
2018-06-28T05:08:53.316Z,63.00
2018-06-28T05:11:24.480Z,62.90
2018-06-28T05:13:54.849Z,61.70
2018-06-28T05:16:25.179Z,61.90
2018-06-28T05:18:55.927Z,61.30
2018-06-28T05:21:26.369Z,60.80
2018-06-28T05:23:57.579Z,60.20
2018-06-28T05:26:28.013Z,60.70
2018-06-28T05:28:58.429Z,60.70
2018-06-28T05:31:28.996Z,60.40
2018-06-28T05:33:59.345Z,59.70
2018-06-28T05:38:59.717Z,59.40
2018-06-28T05:41:30.240Z,59.00
2018-06-28T05:44:00.540Z,58.30
2018-06-28T05:46:30.971Z,58.00
2018-06-28T05:49:01.300Z,58.10
2018-06-28T05:51:31.792Z,57.90
2018-06-28T05:54:02.170Z,57.30
2018-06-28T05:56:32.719Z,57.50
2018-06-28T06:01:33.064Z,56.20
2018-06-28T06:04:03.635Z,56.00
2018-06-28T06:06:33.999Z,55.40
2018-06-28T06:09:05.980Z,55.50
2018-06-28T06:11:36.572Z,55.10
2018-06-28T06:14:07.008Z,54.60
2018-06-28T06:16:37.855Z,55.40
2018-06-28T06:19:08.215Z,54.80
2018-06-28T06:21:38.698Z,55.50
2018-06-28T06:26:39.562Z,53.60
2018-06-28T06:29:10.860Z,54.40
2018-06-28T06:31:41.265Z,52.80
2018-06-28T06:34:11.633Z,52.10
2018-06-28T06:36:41.939Z,51.80
2018-06-28T06:41:43.003Z,51.10
2018-06-28T06:44:13.281Z,50.60
2018-06-28T06:46:43.693Z,51.20
2018-06-28T06:49:13.988Z,50.50
2018-06-28T06:51:44.383Z,50.50
2018-06-28T06:54:14.729Z,50.40
2018-06-28T06:56:45.644Z,50.00
2018-06-28T06:59:15.995Z,49.60
2018-06-28T07:01:46.380Z,50.10
2018-06-28T07:06:46.657Z,48.60
2018-06-28T07:09:17.107Z,48.80
2018-06-28T07:11:47.665Z,48.50
2018-06-28T07:14:18.068Z,50.30
2018-06-28T07:16:48.415Z,47.50
2018-06-28T07:19:18.764Z,48.90
2018-06-28T07:21:49.080Z,47.00
2018-06-28T07:24:19.474Z,46.80
2018-06-28T07:26:49.909Z,46.40
2018-06-28T07:29:20.384Z,46.60
2018-06-28T07:31:51.670Z,46.90
2018-06-28T07:34:22.666Z,47.80
2018-06-28T07:36:53.236Z,45.40
2018-06-28T07:39:23.505Z,45.00
2018-06-28T07:44:23.783Z,45.10
2018-06-28T07:46:54.326Z,44.10
2018-06-28T07:49:24.625Z,44.20
2018-06-28T07:51:54.956Z,43.90
2018-06-28T07:54:25.262Z,43.80
2018-06-28T07:56:55.915Z,43.80
2018-06-28T07:59:26.237Z,43.40
2018-06-28T08:01:56.747Z,42.90
2018-06-28T08:04:27.055Z,44.00
2018-06-28T08:06:57.912Z,42.60
2018-06-28T08:09:28.288Z,43.00
2018-06-28T08:11:59.316Z,42.20
2018-06-28T08:16:59.527Z,40.90
2018-06-28T08:19:29.871Z,40.90
2018-06-28T08:22:00.225Z,40.90
2018-06-28T08:27:00.737Z,40.80
2018-06-28T08:29:31.035Z,40.20
2018-06-28T08:32:01.556Z,39.70
2018-06-28T08:34:32.251Z,40.00
2018-06-28T08:37:02.536Z,39.80
2018-06-28T08:42:02.834Z,40.10
2018-06-28T08:44:33.241Z,40.30
2018-06-28T08:47:03.688Z,40.40
2018-06-28T08:49:34.006Z,40.10
2018-06-28T08:52:04.312Z,37.60
2018-06-28T08:54:34.723Z,37.70
2018-06-28T08:57:05.048Z,37.00
2018-06-28T09:04:35.620Z,36.70
2018-06-28T09:07:05.960Z,36.30
2018-06-28T09:09:36.377Z,35.70
2018-06-28T09:12:06.752Z,35.90
2018-06-28T09:17:07.180Z,36.00
2018-06-28T09:19:37.591Z,35.90
2018-06-28T09:22:07.920Z,35.90
2018-06-28T09:24:38.325Z,36.60
2018-06-28T09:27:08.703Z,35.90
2018-06-28T09:29:39.236Z,35.90
2018-06-28T09:32:09.637Z,36.50
2018-06-28T09:34:40.045Z,35.40
2018-06-28T09:37:10.396Z,35.70
2018-06-28T09:39:40.820Z,35.10
2018-06-28T09:44:42.576Z,34.80
2018-06-28T09:47:12.947Z,35.00
2018-06-28T09:49:43.307Z,36.30
2018-06-28T09:52:13.645Z,35.30
2018-06-28T09:54:44.098Z,34.90
2018-06-28T09:57:14.476Z,35.00
2018-06-28T09:59:44.891Z,35.10
2018-06-28T10:02:15.180Z,34.90
2018-06-28T10:04:45.591Z,35.70
2018-06-28T10:09:46.012Z,35.40
2018-06-28T10:12:16.307Z,35.20
2018-06-28T10:14:46.609Z,35.50
2018-06-28T10:17:16.892Z,34.50
2018-06-28T10:19:47.318Z,34.90
2018-06-28T10:22:18.007Z,33.60
2018-06-28T10:24:48.305Z,34.10
2018-06-28T10:27:18.652Z,32.50
2018-06-28T10:29:48.985Z,32.90
2018-06-28T10:32:19.992Z,32.80
2018-06-28T10:34:50.270Z,33.50
2018-06-28T10:37:20.592Z,33.00
2018-06-28T10:39:50.868Z,33.50
2018-06-28T10:42:21.192Z,32.80
2018-06-28T10:44:51.513Z,33.10
2018-06-28T10:47:21.800Z,33.70
2018-06-28T10:49:52.287Z,33.00
2018-06-28T10:52:22.612Z,31.60
2018-06-28T10:54:53.288Z,31.90
2018-06-28T10:57:23.584Z,32.80
2018-06-28T10:59:53.960Z,32.30
2018-06-28T11:02:24.259Z,31.90
2018-06-28T11:04:54.546Z,32.20
2018-06-28T11:09:54.886Z,32.40
2018-06-28T11:12:25.180Z,31.70
2018-06-28T11:14:55.805Z,31.80
2018-06-28T11:17:26.107Z,31.70
2018-06-28T11:22:26.726Z,32.70
2018-06-28T11:24:57.096Z,31.80
2018-06-28T11:27:28.147Z,31.80
2018-06-28T11:29:59.516Z,31.50
2018-06-28T11:32:30.011Z,31.70
2018-06-28T11:35:00.357Z,31.60
2018-06-28T11:37:30.708Z,31.50
2018-06-28T11:40:00.997Z,31.60
2018-06-28T11:42:31.717Z,31.40
2018-06-28T11:45:02.081Z,31.20
2018-06-28T11:47:32.406Z,31.40
2018-06-28T11:50:02.786Z,31.60
2018-06-28T11:52:33.308Z,31.60
2018-06-28T11:55:04.692Z,31.50
2018-06-28T11:57:34.989Z,31.80
2018-06-28T12:00:05.948Z,30.30
2018-06-28T12:02:36.501Z,30.90
2018-06-28T12:05:06.910Z,30.80
2018-06-28T12:07:37.209Z,30.60
2018-06-28T12:10:07.686Z,29.90
2018-06-28T12:12:38.265Z,30.10
2018-06-28T12:15:09.353Z,30.60
2018-06-28T12:17:39.668Z,30.90
2018-06-28T12:20:10.032Z,31.80
2018-06-28T12:22:40.953Z,31.80
2018-06-28T12:25:11.382Z,31.50
2018-06-28T12:27:41.716Z,31.50
2018-06-28T12:32:42.073Z,29.70
2018-06-28T12:35:12.455Z,29.80
2018-06-28T12:37:42.916Z,30.30
2018-06-28T12:40:13.559Z,31.80
2018-06-28T12:42:43.960Z,30.80
2018-06-28T12:45:15.799Z,30.30
2018-06-28T12:48:11.412Z,30.70
2018-06-28T12:50:41.692Z,30.30
2018-06-28T12:53:13.643Z,30.10
2018-06-28T12:56:20.047Z,30.50
2018-06-28T12:58:51.737Z,31.30
2018-06-28T13:01:23.484Z,31.40
2018-06-28T13:06:24.008Z,31.50
2018-06-28T13:08:55.240Z,31.60
2018-06-28T13:11:26.047Z,30.70
2018-06-28T13:13:56.448Z,30.60
2018-06-28T13:16:28.013Z,30.50
2018-06-28T13:18:58.364Z,30.00
2018-06-28T13:21:29.157Z,30.00
2018-06-28T13:23:59.664Z,29.20
2018-06-28T13:26:30.040Z,29.60
2018-06-28T13:29:00.392Z,29.50
2018-06-28T13:31:30.747Z,29.60
2018-06-28T13:34:01.356Z,28.30
2018-06-28T13:36:31.805Z,29.20
2018-06-28T13:39:02.159Z,28.90
2018-06-28T13:41:32.657Z,28.20
2018-06-28T13:44:02.840Z,27.90
2018-06-28T13:46:33.612Z,27.90
2018-06-28T13:51:34.341Z,28.80
2018-06-28T13:54:04.741Z,28.40
2018-06-28T13:56:35.218Z,28.90
2018-06-28T13:59:06.219Z,28.60
2018-06-28T14:01:37.149Z,28.80
2018-06-28T14:04:07.647Z,29.00
2018-06-28T14:06:38.124Z,29.60
2018-06-28T14:09:11.897Z,29.30
2018-06-28T14:11:42.589Z,29.60
2018-06-28T14:14:13.008Z,29.20
2018-06-28T14:16:43.381Z,29.00
2018-06-28T14:21:43.788Z,29.90
2018-06-28T14:24:14.134Z,29.60
2018-06-28T14:29:14.466Z,29.60
2018-06-28T14:31:44.791Z,29.90
2018-06-28T14:34:15.105Z,31.50
2018-06-28T14:36:45.475Z,31.70
2018-06-28T14:39:15.987Z,31.70
2018-06-28T14:41:47.370Z,31.50
2018-06-28T14:44:17.755Z,31.50
2018-06-28T14:46:48.122Z,31.50
2018-06-28T14:51:48.338Z,31.60
2018-06-28T14:54:18.767Z,32.40
2018-06-28T14:56:49.170Z,33.80
2018-06-28T14:59:19.454Z,34.40
2018-06-28T15:01:49.829Z,34.50
2018-06-28T15:06:50.167Z,34.20
2018-06-28T15:09:20.501Z,34.60
2018-06-28T15:11:50.921Z,35.00
2018-06-28T15:16:52.701Z,34.90
2018-06-28T15:19:23.084Z,35.20
2018-06-28T15:21:53.456Z,35.00
2018-06-28T15:26:53.863Z,35.30
2018-06-28T15:29:27.435Z,35.30
2018-06-28T15:31:57.778Z,36.30
2018-06-28T15:34:28.209Z,35.40
2018-06-28T15:39:28.539Z,36.00
2018-06-28T15:41:58.858Z,35.90
2018-06-28T15:44:30.202Z,34.90
2018-06-28T15:47:00.584Z,34.70
2018-06-28T15:49:31.330Z,34.70
2018-06-28T15:52:01.774Z,35.20
2018-06-28T15:54:32.099Z,35.10
2018-06-28T15:57:03.930Z,34.90
2018-06-28T16:02:04.277Z,34.80
2018-06-28T16:04:34.596Z,34.40
2018-06-28T16:07:05.268Z,34.70
2018-06-28T16:09:35.622Z,34.70
2018-06-28T16:12:06.074Z,34.40
2018-06-28T16:14:36.493Z,33.70
2018-06-28T16:17:07.891Z,33.70
2018-06-28T16:19:38.359Z,33.80
2018-06-28T16:22:08.778Z,33.70
2018-06-28T16:27:09.472Z,33.50
2018-06-28T16:29:39.909Z,33.30
2018-06-28T16:32:10.374Z,33.00
2018-06-28T16:34:42.152Z,33.10
2018-06-28T16:37:12.603Z,33.50
2018-06-28T16:39:42.925Z,33.30
2018-06-28T16:44:43.251Z,34.50
2018-06-28T16:47:13.568Z,34.20
2018-06-28T16:49:43.839Z,34.20
2018-06-28T16:52:14.115Z,33.90
2018-06-28T16:54:45.126Z,33.70
2018-06-28T16:57:15.423Z,34.00
2018-06-28T16:59:45.873Z,33.30
2018-06-28T17:02:16.160Z,33.60
2018-06-28T17:04:46.780Z,33.20
2018-06-28T17:07:17.054Z,33.00
2018-06-28T17:09:47.386Z,33.70
2018-06-28T17:12:17.836Z,33.00
2018-06-28T17:14:48.190Z,33.20
2018-06-28T17:17:18.540Z,33.60
2018-06-28T17:19:48.808Z,33.80
2018-06-28T17:22:19.323Z,34.00
2018-06-28T17:24:49.634Z,34.20
2018-06-28T17:27:19.983Z,34.20
2018-06-28T17:29:50.341Z,34.30
2018-06-28T17:32:20.825Z,34.50
2018-06-28T17:34:51.235Z,34.70
2018-06-28T17:37:21.696Z,34.70
2018-06-28T17:39:52.061Z,34.80
2018-06-28T17:42:22.553Z,34.60
2018-06-28T17:44:53.877Z,34.50
2018-06-28T17:54:54.455Z,35.00
2018-06-28T17:57:24.928Z,35.50
2018-06-28T17:59:55.534Z,35.50
2018-06-28T18:02:26.450Z,35.50
2018-06-28T18:04:56.965Z,35.40
2018-06-28T18:07:27.275Z,35.40
2018-06-28T18:09:57.648Z,35.30
2018-06-28T18:12:28.098Z,35.60
2018-06-28T18:14:58.839Z,35.50
2018-06-28T18:17:29.220Z,35.40
2018-06-28T18:19:59.554Z,35.80
2018-06-28T18:22:29.964Z,35.90
2018-06-28T18:25:00.368Z,35.80
2018-06-28T18:27:30.765Z,35.80
2018-06-28T18:30:01.107Z,35.70
2018-06-28T18:32:31.443Z,35.90
2018-06-28T18:35:01.962Z,35.60
2018-06-28T18:37:32.395Z,36.00
2018-06-28T18:40:02.758Z,35.90
2018-06-28T18:42:34.370Z,35.60
2018-06-28T18:45:05.162Z,36.20
2018-06-28T18:47:35.633Z,35.70
2018-06-28T18:50:06.048Z,36.60
2018-06-28T18:52:36.364Z,35.80
2018-06-28T18:55:06.958Z,36.00
2018-06-28T18:57:39.036Z,35.90
2018-06-28T19:00:09.452Z,35.90
2018-06-28T19:02:39.745Z,35.90
2018-06-28T19:05:10.158Z,35.90
2018-06-28T19:07:40.531Z,36.10
2018-06-28T19:10:16.204Z,36.20
2018-06-28T19:12:46.666Z,36.20
2018-06-28T19:15:22.490Z,36.00
2018-06-28T19:17:53.063Z,35.90
2018-06-28T19:20:23.435Z,36.10
2018-06-28T19:22:58.895Z,36.20
2018-06-28T19:25:29.317Z,36.30
2018-06-28T19:30:35.198Z,36.50
2018-06-28T19:33:05.501Z,36.60
2018-06-28T19:38:06.211Z,37.20
2018-06-28T19:43:11.845Z,37.30
2018-06-28T19:45:42.219Z,37.60
2018-06-28T19:48:12.625Z,37.60
2018-06-28T19:50:48.221Z,37.60
2018-06-28T19:53:18.733Z,38.90
2018-06-28T19:55:49.244Z,38.20
2018-06-28T19:58:22.043Z,38.50
2018-06-28T20:00:57.813Z,38.60
2018-06-28T20:03:33.926Z,38.60
2018-06-28T20:06:04.649Z,38.50
2018-06-28T20:08:35.212Z,38.40
2018-06-28T20:11:05.603Z,38.40
2018-06-28T20:13:41.101Z,38.30
2018-06-28T20:16:16.916Z,38.30
2018-06-28T20:18:52.698Z,38.30
2018-06-28T20:21:23.217Z,38.30
2018-06-28T20:23:53.721Z,38.80
2018-06-28T20:26:30.182Z,38.10
2018-06-28T20:29:05.834Z,38.10
2018-06-28T20:31:42.800Z,38.40
2018-06-28T20:34:13.712Z,38.00
2018-06-28T20:36:44.278Z,38.00
2018-06-28T20:39:14.742Z,38.00
2018-06-28T20:41:45.083Z,37.70
2018-06-28T20:44:15.441Z,37.80
2018-06-28T20:46:45.812Z,37.70
2018-06-28T20:49:16.189Z,37.90
2018-06-28T20:51:46.492Z,37.80
2018-06-28T20:54:16.987Z,38.50
2018-06-28T20:56:47.836Z,38.80
2018-06-28T20:59:18.183Z,39.30
2018-06-28T21:01:49.467Z,40.40
2018-06-28T21:04:19.764Z,40.40
2018-06-28T21:06:50.159Z,40.70
2018-06-28T21:09:20.464Z,41.20
2018-06-28T21:11:50.829Z,41.60
2018-06-28T21:14:22.070Z,41.80
2018-06-28T21:16:52.441Z,42.10
2018-06-28T21:19:22.880Z,42.00
2018-06-28T21:21:53.241Z,42.20
2018-06-28T21:24:24.546Z,42.30
2018-06-28T21:26:54.991Z,43.20
2018-06-28T21:29:25.300Z,42.80
2018-06-28T21:31:55.646Z,43.00
2018-06-28T21:34:26.136Z,42.90
2018-06-28T21:36:56.443Z,43.20
2018-06-28T21:39:26.715Z,43.40
2018-06-28T21:41:57.077Z,43.50
2018-06-28T21:44:27.993Z,43.70
2018-06-28T21:46:58.415Z,43.50
2018-06-28T21:51:58.667Z,43.90
2018-06-28T21:54:29.667Z,44.00
2018-06-28T21:57:00.127Z,44.10
2018-06-28T21:59:30.847Z,44.20
2018-06-28T22:02:01.120Z,44.30
2018-06-28T22:04:31.483Z,44.60
2018-06-28T22:07:01.867Z,44.60
2018-06-28T22:09:32.181Z,44.50
2018-06-28T22:12:02.457Z,44.40
2018-06-28T22:17:02.940Z,44.70
2018-06-28T22:19:33.189Z,45.00
2018-06-28T22:22:03.696Z,44.90
2018-06-28T22:24:34.267Z,45.20
2018-06-28T22:27:04.634Z,45.50
2018-06-28T22:29:35.010Z,45.30
2018-06-28T22:32:05.456Z,45.80
2018-06-28T22:34:35.872Z,45.10
2018-06-28T22:37:06.291Z,45.70
2018-06-28T22:42:06.509Z,45.70
2018-06-28T22:44:37.046Z,45.70
2018-06-28T22:47:07.416Z,45.60
2018-06-28T22:49:37.747Z,45.60
2018-06-28T22:52:08.498Z,45.60
2018-06-28T22:54:39.150Z,45.50
2018-06-28T22:57:09.533Z,45.60
2018-06-28T22:59:39.941Z,45.60
2018-06-28T23:02:11.334Z,46.00
2018-06-28T23:04:42.674Z,46.00
2018-06-28T23:07:12.904Z,46.40
2018-06-28T23:09:43.469Z,46.50
2018-06-28T23:12:13.776Z,46.60
2018-06-28T23:17:14.052Z,47.00
2018-06-28T23:22:51.585Z,47.40
2018-06-28T23:25:22.263Z,47.50
2018-06-28T23:27:52.619Z,47.80
2018-06-28T23:30:23.048Z,47.80
2018-06-28T23:32:53.344Z,47.90
2018-06-28T23:35:24.537Z,47.90
2018-06-28T23:37:55.044Z,48.90
2018-06-28T23:40:25.326Z,48.30
2018-06-28T23:45:26.023Z,48.60
2018-06-28T23:47:56.444Z,48.40
2018-06-28T23:50:26.737Z,48.50
2018-06-28T23:57:57.080Z,48.80
